Main page
METAR-TAF:

METAR-TAF

Airports :

Córdoba Airport

Córdoba, Spain

latitude: 37-51N, longitude: 004-51W, elevation: 90 m

Current weather observation

The report was made 21 minutes ago, at 04:30 UTC
Wind 2 kt from the East
Temperature 6°C
Humidity 81%
Pressure 1021 hPa
Visibility 10 km or more
Broken clouds at a height of 3500 ft

METAR: LEBA 160430Z 08002KT 9999 BKN035 06/03 Q1021

Time: 05:51 (04:51 UTC)

Forecast

The report was made 2 hours and 51 minutes ago, at 02:00 UTC
Forecast valid from 16 at 03 UTC to 16 at 12 UTC
Wind 4 kt from the East
Visibility 10 km or more
Broken clouds at a height of 2500 ft
Probability 30% :
Temporary
from 16 at 04 UTC to 16 at 09 UTC
Broken clouds at a height of 1200 ft

TAF: LEBA 160200Z 1603/1612 08004KT 9999 BKN025 PROB30 TEMPO 1604/1609 BKN012

Weather observations and forecasts of more than 4000 airports (METAR and TAF reports).

The available stations are represented by yellow and red dots on the map.

Hover mouse over dot to see the name of the station.

Then click to see weather observations and forecasts.

To change the map : click on the green buttons with a black cross to zoom in, on the green button with a dash to zoom out, or on the green arrows for adjacent maps.


METAR-TAF: